Latest Coastal Weather Observations for Bowen Airport AWS

IDQ60701

Issued at 6:13 pm EST Wednesday 8 February 2023 (issued every 10 minutes, with the page automatically refreshed every 10 minutes)

About coastal observations | Map of coastal stations | Coastal observations for QLD | Marine services | Other Formats
Station Details ID: 033327 Name: BOWEN AIRPORT AWS Lat: -20.02 Lon: 148.21 Height: 5.9 m
Data from the previous 72 hours. | See also: Recent months at Bowen Airport AWS
Date/Time
EST
Wind Sea
Height
m
Swell Vis
km
Cloud Weather Temp
°C
Press
MSL
hPa
Rain since
9am
mm
Dir  Spd
kts
Gust
kts
Height
m
Period
s
Dir
08/06:00pm SE 14 22 - - - - - - - 26.9 1002.9 0.0
08/05:34pm SE 16 26 - - - - - - - 27.2 1002.6 0.0
08/05:30pm SE 18 26 - - - - - - - 27.0 1002.5 0.0
08/05:00pm SE 20 28 - - - - - - - 27.8 1002.3 0.0
08/04:30pm SSE 15 22 - - - - - - - 27.1 1002.5 0.0
08/04:00pm SE 12 16 - - - - - - - 27.8 1002.3 0.0
08/03:30pm SE 15 21 - - - - - - - 28.0 1002.5 0.0
08/03:00pm SE 13 19 - - - - - - - 28.2 1002.7 0.0
08/02:30pm SE 15 21 - - - - - - - 28.5 1002.8 0.0
08/02:00pm SE 17 23 - - - - - - - 29.2 1003.2 0.0
08/01:30pm SE 13 17 - - - - - - - 29.4 1003.6 0.0
08/01:19pm SE 16 27 - - - - - - - 28.5 1003.7 0.0
08/01:00pm SE 17 22 - - - - - - - 28.7 1003.6 0.0
08/12:30pm SE 18 24 - - - - - - - 28.8 1004.0 0.0
08/12:00pm SE 15 22 - - - - - - - 29.3 1004.4 0.0
08/11:30am SE 16 23 - - - - - - - 28.8 1004.7 0.0
08/11:00am SE 15 19 - - - - - - - 28.8 1004.9 0.0
08/10:30am SE 14 19 - - - - - - - 28.8 1005.3 0.0
08/10:00am SE 16 21 - - - - - - - 28.1 1005.6 0.0
08/09:30am SE 13 17 - - - - - - - 27.4 1005.8 0.0
08/09:00am SE 14 19 - - - - - - - 27.8 1005.8 8.6
08/08:30am SE 14 19 - - - - - - - 27.9 1005.9 8.6
08/08:00am SSE 13 20 - - - - - - - 27.2 1005.8 8.6
08/07:30am SSE 14 21 - - - - - - - 26.4 1005.6 8.6
08/07:00am SSE 10 14 - - - - - - - 26.1 1005.4 8.6
08/06:30am SSE 14 23 - - - - - - - 25.9 1004.8 8.6
08/06:00am SSE 14 20 - - - - - - - 25.4 1004.5 8.6
08/05:30am SSE 14 18 - - - - - - - 25.5 1004.5 8.6
08/05:00am SSE 14 19 - - - - - - - 25.3 1004.3 8.6
08/04:30am SSE 14 20 - - - - - - - 25.4 1004.2 8.6
08/04:00am SSE 16 22 - - - - - - - 25.6 1004.4 8.6
08/03:30am SSE 14 19 - - - - - - - 25.4 1004.5 8.6
08/03:00am SSE 14 20 - - - - - - - 25.6 1004.3 8.6
08/02:30am SSE 13 17 - - - - - - - 25.7 1004.5 8.6
08/02:00am SSE 13 19 - - - - - - - 25.6 1005.0 8.6
08/01:30am SSE 14 21 - - - - - - - 25.7 1005.3 8.6
08/01:00am SSE 10 16 - - - - - - - 25.6 1005.8 8.6
08/12:30am SSE 11 16 - - - - - - - 25.6 1006.3 8.6
08/12:00am SSE 10 14 - - - - - - Recent precip. 25.6 1006.7 8.6
 
Date/Time
EST
Wind Sea
Height
m
Swell Vis
km
Cloud Weather Temp
°C
Press
MSL
hPa
Rain since
9am
mm
Dir  Spd
kts
Gust
kts
Height
m
Period
s
Dir
07/11:30pm SSE 10 16 - - - - - - - 25.6 1006.9 8.6
07/11:00pm SE 12 16 - - - - - - - 26.0 1007.0 7.4
07/10:30pm SE 11 17 - - - - - - - 25.9 1007.3 7.4
07/10:00pm SE 14 20 - - - - - - - 26.1 1007.4 6.6
07/09:30pm SSE 14 20 - - - - - - - 26.6 1007.2 6.6
07/09:00pm SE 16 21 - - - - - - - 26.8 1007.0 6.6
07/08:30pm SE 15 20 - - - - - - - 27.2 1006.8 6.6
07/08:00pm SE 15 20 - - - - - - - 27.2 1006.5 6.6
07/07:30pm SE 18 26 - - - - - - - 27.3 1006.2 6.6
07/07:00pm SE 14 20 - - - - - - - 27.7 1005.7 6.6
07/06:30pm SE 13 21 - - - - - - - 27.6 1005.5 6.6
07/06:00pm ESE 11 15 - - - - - - - 28.1 1005.2 6.6
07/05:30pm SE 16 22 - - - - - - - 29.3 1005.0 6.6
07/05:00pm SE 17 24 - - - - - - - 30.1 1004.8 6.6
07/04:30pm SE 13 17 - - - - - - - 30.4 1004.8 6.6
07/04:00pm ESE 13 18 - - - - - - - 30.2 1005.1 6.6
07/03:30pm SE 12 17 - - - - - - - 28.8 1005.3 6.6
07/03:00pm SE 13 18 - - - - - - Recent precip. 27.0 1005.6 6.6
07/02:30pm SSE 16 23 - - - - - - - 28.3 1006.0 6.6
07/02:00pm SE 15 22 - - - - - - - 27.2 1006.0 6.4
07/01:30pm ESE 11 18 - - - - - - - 28.0 1006.3 5.2
07/01:00pm SSE 5 7 - - - - - - - 27.4 1006.5 4.8
07/12:30pm ESE 14 23 - - - - - - - 26.4 1007.0 3.0
07/12:00pm SE 7 11 - - - - - - - 30.4 1007.1 0.0
07/11:30am SE 12 16 - - - - - - - 28.6 1007.5 0.0
07/11:00am SE 10 13 - - - - - - - 30.7 1007.7 0.0
07/10:30am ESE 8 10 - - - - - - - 29.5 1007.8 0.0
07/10:00am SE 8 9 - - - - - - - 28.5 1008.0 0.0
07/09:30am ESE 11 16 - - - - - - - 27.0 1008.2 0.0
07/09:00am SE 12 16 - - - - - - - 29.1 1008.0 0.0
07/08:30am SE 10 13 - - - - - - - 29.3 1007.7 0.0
07/08:00am SSE 10 15 - - - - - - - 28.7 1007.8 0.0
07/07:30am SE 9 12 - - - - - - - 27.9 1007.5 0.0
07/07:00am SSE 8 11 - - - - - - - 27.0 1007.5 0.0
07/06:30am SSE 6 9 - - - - - - - 26.1 1007.2 0.0
07/06:00am SSE 7 9 - - - - - - - 25.5 1007.0 0.0
07/05:30am SSE 6 9 - - - - - - - 25.6 1006.9 0.0
07/05:00am S 5 7 - - - - - - - 25.6 1006.6 0.0
07/04:30am SSE 6 8 - - - - - - - 25.5 1006.6 0.0
07/04:00am SSE 6 8 - - - - - - - 25.6 1006.7 0.0
07/03:30am SSE 6 8 - - - - - - - 25.7 1006.8 0.0
07/03:00am SSE 6 7 - - - - - - - 25.9 1006.8 0.0
07/02:30am SSE 7 8 - - - - - - - 25.9 1006.8 0.0
07/02:00am SSE 6 8 - - - - - - - 26.0 1007.1 0.0
07/01:30am SSE 7 8 - - - - - - - 26.5 1007.6 0.0
07/01:00am SSE 7 10 - - - - - - - 26.6 1007.9 0.0
07/12:30am SSE 6 8 - - - - - - - 26.8 1008.1 0.0
07/12:00am SSE 5 7 - - - - - - - 26.7 1008.4 0.0
 
Date/Time
EST
Wind Sea
Height
m
Swell Vis
km
Cloud Weather Temp
°C
Press
MSL
hPa
Rain since
9am
mm
Dir  Spd
kts
Gust
kts
Height
m
Period
s
Dir
06/11:30pm SSE 6 8 - - - - - - - 26.8 1008.6 0.0
06/11:00pm SE 9 13 - - - - - - - 27.4 1008.9 0.0
06/10:30pm SSE 6 9 - - - - - - - 27.3 1009.0 0.0
06/10:00pm SE 10 13 - - - - - - - 27.9 1009.2 0.0
06/09:30pm SE 7 10 - - - - - - - 28.1 1009.1 0.0
06/09:00pm SE 7 11 - - - - - - - 27.7 1008.8 0.0
06/08:30pm SSE 6 8 - - - - - - - 27.2 1008.4 0.0
06/08:00pm SSE 8 11 - - - - - - - 27.8 1008.1 0.0
06/07:30pm SE 9 12 - - - - - - - 28.2 1007.8 0.0
06/07:00pm SSE 9 12 - - - - - - - 28.4 1007.6 0.0
06/06:30pm SE 8 13 - - - - - - - 29.4 1007.3 0.0
06/06:00pm E 10 14 - - - - - - - 30.3 1007.1 0.0
06/05:30pm E 12 16 - - - - - - - 30.2 1007.0 0.0
06/05:00pm E 12 17 - - - - - - - 30.4 1007.0 0.0
06/04:30pm E 13 18 - - - - - - - 30.7 1007.1 0.0
06/04:00pm E 13 19 - - - - - - - 31.3 1007.0 0.0
06/03:30pm E 14 19 - - - - - - - 31.4 1007.2 0.0
06/03:00pm E 13 19 - - - - - - - 31.9 1007.3 0.0
06/02:30pm E 11 15 - - - - - - - 32.1 1007.5 0.0
06/02:00pm E 12 15 - - - - - - - 31.5 1007.8 0.0
06/01:30pm ENE 10 14 - - - - - - - 31.3 1008.2 0.0
06/01:00pm ENE 11 15 - - - - - - - 31.6 1008.5 0.0
06/12:30pm E 11 16 - - - - - - - 31.1 1008.8 0.0
06/12:00pm ESE 9 13 - - - - - - - 31.2 1009.1 0.0
06/11:30am ESE 9 12 - - - - - - - 31.1 1009.4 0.0
06/11:00am ESE 11 15 - - - - - - - 30.3 1009.8 0.0
06/10:30am SE 12 15 - - - - - - - 28.8 1010.1 0.0
06/10:00am SE 9 13 - - - - - - - 29.8 1010.1 0.0
06/09:30am SE 9 12 - - - - - - - 28.6 1010.4 0.0
06/09:00am SE 8 11 - - - - - - - 28.0 1010.5 13.6
06/08:30am ESE 8 11 - - - - - - - 28.0 1010.2 13.6
06/08:00am SE 11 15 - - - - - - - 27.5 1010.0 13.6
06/07:30am SSE 5 7 - - - - - - - 27.2 1009.8 13.4
06/07:00am SSE 5 9 - - - - - - - 27.0 1009.6 13.4
06/06:30am SE 5 7 - - - - - - - 26.6 1009.4 13.4
06/06:00am SSE 4 5 - - - - - - - 26.2 1008.8 13.4
06/05:30am SE 6 7 - - - - - - - 26.3 1008.6 13.4
06/05:00am SSE 4 6 - - - - - - - 26.1 1008.4 13.4
06/04:30am S 5 7 - - - - - - - 26.5 1008.1 13.4
06/04:00am SSE 7 9 - - - - - - - 26.5 1008.0 13.4
06/03:30am SSE 7 9 - - - - - - - 26.5 1008.0 13.4
06/03:00am SSE 6 7 - - - - - - - 26.4 1007.9 13.4
06/02:30am S 5 7 - - - - - - - 26.4 1007.8 13.4
06/02:00am SSE 4 5 - - - - - - - 26.4 1007.7 13.4
06/01:30am SSE 4 5 - - - - - - - 26.6 1008.0 13.4
06/01:00am S 5 6 - - - - - - - 27.1 1008.4 13.4
06/12:30am SE 5 9 - - - - - - - 28.0 1008.7 13.4
06/12:00am ESE 10 14 - - - - - - Recent precip. 28.1 1008.9 13.4
 
Date/Time
EST
Wind Sea
Height
m
Swell Vis
km
Cloud Weather Temp
°C
Press
MSL
hPa
Rain since
9am
mm
Dir  Spd
kts
Gust
kts
Height
m
Period
s
Dir
05/11:30pm E 6 11 - - - - - - - 27.7 1009.1 13.4
05/11:00pm NE 4 6 - - - - - - - 26.5 1009.4 13.0
05/10:30pm NE 5 7 - - - - - - - 26.2 1009.5 10.6
05/10:00pm ENE 15 24 - - - - - - - 26.6 1009.4 3.4
05/09:30pm ESE 10 15 - - - - - - - 29.0 1008.8 0.0
05/09:00pm ESE 11 14 - - - - - - - 29.0 1008.7 0.0
05/08:30pm ESE 10 15 - - - - - - - 28.9 1008.4 0.0
05/08:00pm E 12 16 - - - - - - - 28.8 1007.7 0.0
05/07:30pm E 11 16 - - - - - - - 28.9 1007.6 0.0
05/07:00pm E 11 15 - - - - - - - 29.0 1007.1 0.0
05/06:30pm E 12 18 - - - - - - - 29.1 1006.7 0.0

Other formats

Comma delimited format used in spreadsheet applications
http://www.bom.gov.au/fwo/IDQ60701/IDQ60701.94383.axf

JavaScript Object Notation format (JSON) in row-major order
http://www.bom.gov.au/fwo/IDQ60701/IDQ60701.94383.json

Data quality

Most of these data are generated automatically and are frequently updated. Quality checks on data are not normally performed. It is possible for incorrect values to appear. Refer to information at About Latest Weather Observations and please check the disclaimer before using these data.